CheckWX is a tool to help pilots better visualize weather data.  It is not intended as a substitute for an official pre-flight weather briefing.

20:53:43 UTC

CYAS METAR
Kangirsuk Supplementary Aviation Weather Reporting
Kangirsuk, Canada
Current

54 mins ago

CYAS 232000Z 21024G30KT 1/2SM SN BLSN OVC020 M14/M17 A2918 RMK BLSN5SC3 SLP897
Observed
Mar-23 @ 20:00 UTC
Wind
  • 210° at 24 KTS
  • Gusting to 30 KTS
Visibility
1/2 SM
Flight Rules
LIFR
Conditions
Snow, Blowing Snow
Cloud Levels
  • Overcast at 2,000' AGL
Temperature
-14°C / 7°F
Dewpoint
-17°C / 1°F
Humidity
78%
Altimeter
29.18" Hg
Pressure
989.7 hPa
Previous

2 hours ago

CYAS 231900Z 20022KT 1SM -SN DRSN OVC028 M14/M17 A2923 RMK SN3SC5 SLP912
Observed
Mar-23 @ 19:00 UTC
Wind
  • 200° at 22 KTS
Visibility
1 SM
Flight Rules
IFR
Conditions
Light Snow, Low drifting Snow
Cloud Levels
  • Overcast at 2,800' AGL
Temperature
-14°C / 7°F
Dewpoint
-17°C / 1°F
Humidity
78%
Altimeter
29.23" Hg
Pressure
991.2 hPa
Previous

3 hours ago

CYAS 231814Z 18018G25KT 1SM -SN DRSN OVC017 RMK SN4ST4 DENSITY ALT MISG
Observed
Mar-23 @ 18:14 UTC
Wind
  • 180° at 18 KTS
  • Gusting to 25 KTS
Visibility
1 SM
Flight Rules
IFR
Conditions
Light Snow, Low drifting Snow
Cloud Levels
  • Overcast at 1,700' AGL